This is the latest recevied weather packets stored in our database for station/object K0SNA. If no packets are shown the sender has not sent any weather packets the latest 1 day(s).
| Time | Temp. | Humidity | Pressure | Rain* | Wind** | Luminosity | Snow |
|---|---|---|---|---|---|---|---|
| 1778092954 | 6.11° C | 50% | 1016.7 hPa | 0 mm | - | 272 W/m² | - |
| 1778092651 | 5.56° C | 52% | 1017 hPa | 0 mm | - | 198 W/m² | - |
| 1778090828 | 5.56° C | 51% | 1017 hPa | 0 mm | - | 204 W/m² | - |
| 1778089917 | 5° C | 52% | 1017.2 hPa | 0 mm | - | 157 W/m² | - |
| 1778089615 | 5° C | 52% | 1017.1 hPa | 0 mm | - | 149 W/m² | - |
| 1778088706 | 5° C | 52% | 1017.3 hPa | 0 mm | - | 200 W/m² | - |
| 1778088403 | 5° C | 51% | 1017.4 hPa | 0 mm | - | 236 W/m² | - |
| 1778088099 | 5° C | 51% | 1017.3 hPa | 0 mm | - | 318 W/m² | - |
| 1778086576 | 5° C | 52% | 1017.7 hPa | 0 mm | - | 218 W/m² | - |
| 1778085362 | 5° C | 52% | 1017.5 hPa | 0 mm | - | 271 W/m² | - |
| 1778085058 | 5° C | 52% | 1017.5 hPa | 0 mm | - | 261 W/m² | - |
| 1778083846 | 4.44° C | 52% | 1017.5 hPa | 0 mm | - | 168 W/m² | - |
| 1778083240 | 4.44° C | 51% | 1017.5 hPa | 0 mm | - | 203 W/m² | - |
| 1778081533 | 5° C | 52% | 1017.2 hPa | 0 mm | - | 209 W/m² | - |
| 1778080018 | 4.44° C | 55% | 1017.4 hPa | 0 mm | - | 232 W/m² | - |
| 1778078504 | 3.89° C | 54% | 1017.5 hPa | 0 mm | - | 169 W/m² | - |
| 1778076992 | 3.89° C | 57% | 1017.3 hPa | 0 mm | - | 131 W/m² | - |
| 1778075782 | 3.89° C | 57% | 1017.3 hPa | 0 mm | - | 108 W/m² | - |
| 1778075478 | 3.33° C | 58% | 1017.3 hPa | 0 mm | - | 104 W/m² | - |
| 1778074265 | 3.33° C | 59% | 1017.3 hPa | 0 mm | - | 101 W/m² | - |
| 1778073659 | 3.33° C | 59% | 1017 hPa | 0 mm | - | 99 W/m² | - |
| 1778071238 | 3.89° C | 58% | 1016.6 hPa | 0 mm | - | 101 W/m² | - |
| 1778070634 | 3.33° C | 59% | 1016.6 hPa | 0 mm | - | 137 W/m² | - |
| 1778069120 | 2.22° C | 65% | 1016.3 hPa | 0 mm | - | 45 W/m² | - |
| 1778068213 | 1.11° C | 70% | 1015.9 hPa | 0 mm | - | 24 W/m² | - |
* Rain latest hour (hover to see other rain measurements)
** Current wind speed in m/s (hover to see current wind gust speed)